createdAt,value
2022-11-19T00:02:18.158Z,-3.24
2022-11-19T00:05:05.708Z,-3.29
2022-11-19T00:07:53.153Z,-3.38
2022-11-19T00:10:40.594Z,-3.49
2022-11-19T00:13:27.945Z,-3.57
2022-11-19T00:16:15.364Z,-3.61
2022-11-19T00:19:02.768Z,-3.63
2022-11-19T00:21:50.323Z,-3.65
2022-11-19T00:24:37.873Z,-3.67
2022-11-19T00:27:25.333Z,-3.67
2022-11-19T00:30:32.715Z,-3.66
2022-11-19T00:33:20.552Z,-3.64
2022-11-19T00:36:10.003Z,-3.61
2022-11-19T00:38:57.415Z,-3.61
2022-11-19T00:41:44.730Z,-3.59
2022-11-19T00:44:36.917Z,-3.60
2022-11-19T00:47:24.942Z,-3.56
2022-11-19T00:50:12.292Z,-3.55
2022-11-19T00:52:59.766Z,-3.52
2022-11-19T00:55:47.145Z,-3.50
2022-11-19T00:58:34.704Z,-3.50
2022-11-19T01:01:23.279Z,-3.50
2022-11-19T01:04:11.083Z,-3.50
2022-11-19T01:06:58.570Z,-3.50
2022-11-19T01:09:47.380Z,-3.50
2022-11-19T01:12:54.715Z,-3.53
2022-11-19T01:15:42.208Z,-3.54
2022-11-19T01:18:29.783Z,-3.54
2022-11-19T01:21:18.031Z,-3.55
2022-11-19T01:24:05.665Z,-3.60
2022-11-19T01:26:53.051Z,-3.65
2022-11-19T01:29:40.440Z,-3.65
2022-11-19T01:32:27.829Z,-3.67
2022-11-19T01:35:15.252Z,-3.69
2022-11-19T01:38:03.045Z,-3.73
2022-11-19T01:40:50.506Z,-3.73
2022-11-19T01:43:40.957Z,-3.72
2022-11-19T01:46:29.796Z,-3.69
2022-11-19T01:49:19.226Z,-3.65
2022-11-19T01:52:06.937Z,-3.62
2022-11-19T01:54:55.567Z,-3.59
2022-11-19T01:57:43.015Z,-3.54
2022-11-19T02:00:30.454Z,-3.50
2022-11-19T02:03:19.630Z,-3.48
2022-11-19T02:06:07.785Z,-3.47
2022-11-19T02:08:55.260Z,-3.45
2022-11-19T02:11:54.887Z,-3.38
2022-11-19T02:14:51.879Z,-3.36
2022-11-19T02:18:01.133Z,-3.32
2022-11-19T02:20:54.521Z,-3.31
2022-11-19T02:23:45.928Z,-3.25
2022-11-19T02:26:52.520Z,-3.20
2022-11-19T02:29:58.304Z,-3.11
2022-11-19T02:32:51.849Z,-3.07
2022-11-19T02:35:42.099Z,-3.00
2022-11-19T02:38:35.637Z,-2.90
2022-11-19T02:41:35.345Z,-2.84
2022-11-19T02:44:41.443Z,-2.76
2022-11-19T02:47:42.103Z,-2.70
2022-11-19T02:50:35.345Z,-2.64
2022-11-19T02:53:23.882Z,-2.59
2022-11-19T02:56:12.527Z,-2.53
2022-11-19T02:59:18.999Z,-2.49
2022-11-19T03:02:25.172Z,-2.44
2022-11-19T03:05:15.400Z,-2.40
2022-11-19T03:08:02.976Z,-2.35
2022-11-19T03:11:02.762Z,-2.31
2022-11-19T03:14:21.040Z,-2.28
2022-11-19T03:17:13.888Z,-2.22
2022-11-19T03:20:04.730Z,-2.20
2022-11-19T03:22:54.695Z,-2.17
2022-11-19T03:25:45.546Z,-2.17
2022-11-19T03:28:35.910Z,-2.15
2022-11-19T03:31:25.116Z,-2.14
2022-11-19T03:34:15.442Z,-2.15
2022-11-19T03:37:04.311Z,-2.14
2022-11-19T03:39:53.043Z,-2.13
2022-11-19T03:42:41.553Z,-2.09
2022-11-19T03:45:32.723Z,-2.08
2022-11-19T03:48:21.802Z,-2.04
2022-11-19T03:51:29.608Z,-2.04
2022-11-19T03:54:17.275Z,-2.01
2022-11-19T03:57:06.132Z,-2.00
2022-11-19T03:59:53.511Z,-1.98
2022-11-19T04:02:41.003Z,-2.01
2022-11-19T04:05:28.379Z,-2.03
2022-11-19T04:08:15.795Z,-2.02
2022-11-19T04:13:49.405Z,-2.00
2022-11-19T04:16:36.804Z,-1.94
2022-11-19T04:19:24.215Z,-1.95
2022-11-19T04:22:11.568Z,-1.96
2022-11-19T04:24:58.969Z,-1.96
2022-11-19T04:27:46.960Z,-1.94
2022-11-19T04:30:34.370Z,-1.94
2022-11-19T04:33:21.792Z,-1.96
2022-11-19T04:36:09.204Z,-1.94
2022-11-19T04:38:56.582Z,-1.91
2022-11-19T04:41:44.038Z,-1.91
2022-11-19T04:44:33.000Z,-1.91
2022-11-19T04:47:20.521Z,-1.89
2022-11-19T04:50:08.122Z,-1.86
2022-11-19T04:52:55.523Z,-1.87
2022-11-19T04:55:42.948Z,-1.86
2022-11-19T04:58:30.352Z,-1.81
2022-11-19T05:01:20.479Z,-1.77
2022-11-19T05:04:08.057Z,-1.74
2022-11-19T05:06:55.573Z,-1.74
2022-11-19T05:09:43.007Z,-1.71
2022-11-19T05:12:30.389Z,-1.68
2022-11-19T05:15:17.919Z,-1.68
2022-11-19T05:18:05.379Z,-1.71
2022-11-19T05:20:52.861Z,-1.72
2022-11-19T05:23:40.497Z,-1.77
2022-11-19T05:26:28.040Z,-1.80
2022-11-19T05:29:15.492Z,-1.83
2022-11-19T05:32:02.969Z,-1.81
2022-11-19T05:34:50.441Z,-1.80
2022-11-19T05:37:37.919Z,-1.77
2022-11-19T05:40:25.309Z,-1.74
2022-11-19T05:43:12.946Z,-1.68
2022-11-19T05:46:01.139Z,-1.64
2022-11-19T05:48:48.542Z,-1.60
2022-11-19T05:51:36.070Z,-1.60
2022-11-19T05:54:23.458Z,-1.59
2022-11-19T05:57:10.880Z,-1.56
2022-11-19T05:59:58.263Z,-1.53
2022-11-19T06:02:46.012Z,-1.50
2022-11-19T06:05:38.789Z,-1.44
2022-11-19T06:08:27.626Z,-1.37
2022-11-19T06:11:36.335Z,-1.31
2022-11-19T06:14:25.438Z,-1.25
2022-11-19T06:17:13.241Z,-1.25
2022-11-19T06:20:00.727Z,-1.27
2022-11-19T06:22:48.065Z,-1.28
2022-11-19T06:25:35.619Z,-1.25
2022-11-19T06:28:23.113Z,-1.21
2022-11-19T06:31:10.639Z,-1.17
2022-11-19T06:33:58.113Z,-1.12
2022-11-19T06:36:50.337Z,-1.10
2022-11-19T06:39:38.200Z,-1.01
2022-11-19T06:42:38.086Z,-0.98
2022-11-19T06:45:25.567Z,-0.99
2022-11-19T06:48:12.981Z,-0.95
2022-11-19T06:51:01.745Z,-0.88
2022-11-19T06:53:50.383Z,-0.82
2022-11-19T06:56:37.788Z,-0.77
2022-11-19T06:59:25.183Z,-0.72
2022-11-19T07:02:12.986Z,-0.70
2022-11-19T07:05:00.510Z,-0.65
2022-11-19T07:07:48.282Z,-0.60
2022-11-19T07:10:37.914Z,-0.55
2022-11-19T07:13:45.577Z,-0.48
2022-11-19T07:16:34.564Z,-0.37
2022-11-19T07:19:22.200Z,-0.35
2022-11-19T07:22:10.101Z,-0.37
2022-11-19T07:24:57.564Z,-0.39
2022-11-19T07:27:47.246Z,-0.32
2022-11-19T07:30:34.725Z,-0.29
2022-11-19T07:33:22.244Z,-0.31
2022-11-19T07:36:15.476Z,-0.29
2022-11-19T07:39:05.759Z,-0.30
2022-11-19T07:42:11.996Z,-0.26
2022-11-19T07:45:01.228Z,-0.28
2022-11-19T07:47:50.527Z,-0.30
2022-11-19T07:50:37.955Z,-0.27
2022-11-19T07:53:25.307Z,-0.23
2022-11-19T07:56:12.701Z,-0.21
2022-11-19T07:59:00.602Z,-0.26
2022-11-19T08:01:48.094Z,-0.23
2022-11-19T08:04:35.639Z,-0.14
2022-11-19T08:07:23.225Z,-0.09
2022-11-19T08:10:11.055Z,-0.08
2022-11-19T08:13:08.807Z,-0.01
2022-11-19T08:16:03.744Z,-0.01
2022-11-19T08:18:51.179Z,0.03
2022-11-19T08:21:43.008Z,0.05
2022-11-19T08:24:30.402Z,-0.04
2022-11-19T08:27:18.637Z,-0.15
2022-11-19T08:30:06.287Z,-0.19
2022-11-19T08:32:53.790Z,-0.23
2022-11-19T08:35:41.315Z,-0.20
2022-11-19T08:38:28.724Z,-0.14
2022-11-19T08:41:37.602Z,-0.09
2022-11-19T08:44:25.242Z,-0.07
2022-11-19T08:47:12.704Z,-0.12
2022-11-19T08:50:00.178Z,-0.13
2022-11-19T08:52:53.571Z,-0.15
2022-11-19T08:55:41.881Z,-0.06
2022-11-19T08:58:29.276Z,0.06
2022-11-19T09:01:17.457Z,0.11
2022-11-19T09:04:05.062Z,0.07
2022-11-19T09:06:52.581Z,-0.02
2022-11-19T09:09:39.928Z,0.00
2022-11-19T09:12:29.590Z,0.03
2022-11-19T09:15:19.512Z,0.00
2022-11-19T09:18:07.569Z,-0.06
2022-11-19T09:20:56.041Z,-0.09
2022-11-19T09:23:44.159Z,-0.10
2022-11-19T09:26:32.087Z,-0.13
2022-11-19T09:29:19.890Z,-0.19
2022-11-19T09:32:11.550Z,-0.24
2022-11-19T09:34:59.359Z,-0.34
2022-11-19T09:37:47.427Z,-0.41
2022-11-19T09:40:37.782Z,-0.33
2022-11-19T09:43:34.591Z,-0.30
2022-11-19T09:46:28.503Z,-0.25
2022-11-19T09:49:22.266Z,-0.26
2022-11-19T09:52:12.208Z,-0.26
2022-11-19T09:55:00.857Z,-0.27
2022-11-19T09:57:58.865Z,-0.27
2022-11-19T10:00:46.379Z,-0.25
2022-11-19T10:03:34.267Z,-0.24
2022-11-19T10:06:25.827Z,-0.24
2022-11-19T10:09:13.304Z,-0.21
2022-11-19T10:12:00.722Z,-0.19
2022-11-19T10:14:54.335Z,-0.17
2022-11-19T10:17:47.891Z,-0.20
2022-11-19T10:20:53.813Z,-0.26
2022-11-19T10:23:49.711Z,-0.30
2022-11-19T10:26:39.963Z,-0.25
2022-11-19T10:29:29.836Z,-0.19
2022-11-19T10:32:21.433Z,-0.16
2022-11-19T10:35:15.185Z,-0.11
2022-11-19T10:38:05.183Z,-0.14
2022-11-19T10:41:13.056Z,-0.16
2022-11-19T10:44:02.958Z,-0.25
2022-11-19T10:46:50.779Z,-0.23
2022-11-19T10:49:41.716Z,-0.26
2022-11-19T10:52:31.747Z,-0.34
2022-11-19T10:55:24.369Z,-0.38
2022-11-19T10:58:21.081Z,-0.40
2022-11-19T11:01:22.477Z,-0.35
2022-11-19T11:04:19.217Z,-0.32
2022-11-19T11:07:07.005Z,-0.31
2022-11-19T11:09:54.455Z,-0.35
2022-11-19T11:13:00.808Z,-0.42
2022-11-19T11:15:49.199Z,-0.45
2022-11-19T11:18:40.654Z,-0.49
2022-11-19T11:21:28.166Z,-0.45
2022-11-19T11:24:16.186Z,-0.41
2022-11-19T11:27:24.959Z,-0.39
2022-11-19T11:30:12.458Z,-0.43
2022-11-19T11:33:20.247Z,-0.42
2022-11-19T11:36:15.784Z,-0.41
2022-11-19T11:39:04.502Z,-0.38
2022-11-19T11:42:05.278Z,-0.36
2022-11-19T11:44:57.614Z,-0.39
2022-11-19T11:47:45.339Z,-0.45
2022-11-19T11:50:33.105Z,-0.42
2022-11-19T11:53:31.536Z,-0.39
2022-11-19T11:56:21.157Z,-0.39
2022-11-19T11:59:15.235Z,-0.45
2022-11-19T12:02:04.032Z,-0.51
2022-11-19T12:04:51.798Z,-0.59
2022-11-19T12:07:58.392Z,-0.67
2022-11-19T12:11:00.239Z,-0.77
2022-11-19T12:13:56.245Z,-0.82
2022-11-19T12:17:00.297Z,-0.78
2022-11-19T12:19:57.084Z,-0.71
2022-11-19T12:22:44.475Z,-0.67
2022-11-19T12:25:37.222Z,-0.71
2022-11-19T12:28:24.570Z,-0.74
2022-11-19T12:31:23.477Z,-0.72
2022-11-19T12:34:22.795Z,-0.68
2022-11-19T12:37:29.906Z,-0.63
2022-11-19T12:40:20.446Z,-0.58
2022-11-19T12:43:07.840Z,-0.57
2022-11-19T12:46:18.651Z,-0.57
2022-11-19T12:49:25.082Z,-0.53
2022-11-19T12:52:24.789Z,-0.48
2022-11-19T12:55:18.817Z,-0.44
2022-11-19T12:58:09.248Z,-0.49
2022-11-19T13:01:02.076Z,-0.55
2022-11-19T13:04:03.828Z,-0.60
2022-11-19T13:07:02.819Z,-0.63
2022-11-19T13:09:50.203Z,-0.68
2022-11-19T13:12:41.460Z,-0.70
2022-11-19T13:15:35.256Z,-0.70
2022-11-19T13:18:22.792Z,-0.77
2022-11-19T13:21:19.262Z,-0.76
2022-11-19T13:24:20.932Z,-0.75
2022-11-19T13:27:16.589Z,-0.73
2022-11-19T13:30:16.495Z,-0.73
2022-11-19T13:33:13.954Z,-0.78
2022-11-19T13:36:07.693Z,-0.77
2022-11-19T13:38:55.778Z,-0.74
2022-11-19T13:42:05.999Z,-0.70
2022-11-19T13:44:53.493Z,-0.71
2022-11-19T13:47:47.679Z,-0.72
2022-11-19T13:50:40.206Z,-0.72
2022-11-19T13:53:34.340Z,-0.77
2022-11-19T13:56:21.886Z,-0.78
2022-11-19T13:59:21.897Z,-0.80
2022-11-19T14:02:29.275Z,-0.78
2022-11-19T14:05:19.721Z,-0.84
2022-11-19T14:08:26.728Z,-0.94
2022-11-19T14:11:22.842Z,-0.97
2022-11-19T14:14:30.154Z,-0.97
2022-11-19T14:17:54.787Z,-0.91
2022-11-19T14:21:02.091Z,-0.89
2022-11-19T14:24:07.894Z,-0.84
2022-11-19T14:27:13.366Z,-0.81
2022-11-19T14:30:11.268Z,-0.79
2022-11-19T14:32:58.669Z,-0.78
2022-11-19T14:35:46.640Z,-0.77
2022-11-19T14:38:36.704Z,-0.77
2022-11-19T14:41:31.738Z,-0.72
2022-11-19T14:44:25.255Z,-0.70
2022-11-19T14:47:21.816Z,-0.71
2022-11-19T14:50:10.904Z,-0.75
2022-11-19T14:52:59.996Z,-0.72
2022-11-19T14:55:52.971Z,-0.70
2022-11-19T14:58:49.826Z,-0.69
2022-11-19T15:01:49.410Z,-0.72
2022-11-19T15:04:40.201Z,-0.74
2022-11-19T15:07:33.774Z,-0.74
2022-11-19T15:10:28.825Z,-0.73
2022-11-19T15:13:18.575Z,-0.70
2022-11-19T15:16:05.902Z,-0.67
2022-11-19T15:19:00.806Z,-0.68
2022-11-19T15:22:08.501Z,-0.71
2022-11-19T15:24:59.092Z,-0.71
2022-11-19T15:28:05.202Z,-0.70
2022-11-19T15:31:02.586Z,-0.64
2022-11-19T15:34:12.346Z,-0.63
2022-11-19T15:37:03.128Z,-0.66
2022-11-19T15:39:55.992Z,-0.69
2022-11-19T15:42:52.302Z,-0.74
2022-11-19T15:54:34.599Z,-0.80
2022-11-19T15:57:27.453Z,-0.78
2022-11-19T16:00:16.746Z,-0.79
2022-11-19T16:03:10.231Z,-0.84
2022-11-19T16:06:02.120Z,-0.87
2022-11-19T16:08:56.891Z,-0.87
2022-11-19T16:12:03.403Z,-0.81
2022-11-19T16:15:09.998Z,-0.77
2022-11-19T16:17:57.374Z,-0.75
2022-11-19T16:20:47.385Z,-0.74
2022-11-19T16:23:54.905Z,-0.73
2022-11-19T16:26:43.576Z,-0.72
2022-11-19T16:29:33.507Z,-0.68
2022-11-19T16:32:23.424Z,-0.61
2022-11-19T16:35:11.892Z,-0.59
2022-11-19T16:38:00.339Z,-0.57
2022-11-19T16:41:06.341Z,-0.59
2022-11-19T16:43:53.790Z,-0.61
2022-11-19T16:46:41.362Z,-0.62
2022-11-19T16:49:30.560Z,-0.60
2022-11-19T16:52:38.222Z,-0.63
2022-11-19T16:55:25.697Z,-0.69
2022-11-19T16:58:16.330Z,-0.73
2022-11-19T17:01:04.078Z,-0.74
2022-11-19T17:03:51.569Z,-0.76
2022-11-19T17:06:39.114Z,-0.79
2022-11-19T17:09:41.649Z,-0.86
2022-11-19T17:12:29.787Z,-0.85
2022-11-19T17:15:35.456Z,-0.82
2022-11-19T17:18:31.547Z,-0.78
2022-11-19T17:21:23.133Z,-0.74
2022-11-19T17:24:13.055Z,-0.76
2022-11-19T17:27:01.078Z,-0.76
2022-11-19T17:29:48.909Z,-0.75
2022-11-19T17:32:40.577Z,-0.75
2022-11-19T17:35:41.167Z,-0.74
2022-11-19T17:38:30.004Z,-0.71
2022-11-19T17:41:39.409Z,-0.71
2022-11-19T17:44:31.908Z,-0.71
2022-11-19T17:47:23.203Z,-0.71
2022-11-19T17:50:11.105Z,-0.72
2022-11-19T17:52:58.602Z,-0.70
2022-11-19T17:55:47.409Z,-0.68
2022-11-19T17:58:37.219Z,-0.62
2022-11-19T18:01:24.817Z,-0.57
2022-11-19T18:04:12.799Z,-0.59
2022-11-19T18:07:00.425Z,-0.59
2022-11-19T18:09:48.124Z,-0.63
2022-11-19T18:12:35.596Z,-0.60
2022-11-19T18:15:25.595Z,-0.57
2022-11-19T18:18:14.717Z,-0.55
2022-11-19T18:21:02.485Z,-0.57
2022-11-19T18:23:54.334Z,-0.59
2022-11-19T18:26:46.211Z,-0.62
2022-11-19T18:29:36.022Z,-0.60
2022-11-19T18:32:28.320Z,-0.58
2022-11-19T18:35:18.041Z,-0.60
2022-11-19T18:38:05.461Z,-0.62
2022-11-19T18:40:52.984Z,-0.63
2022-11-19T18:43:59.463Z,-0.64
2022-11-19T18:46:46.921Z,-0.66
2022-11-19T18:49:35.182Z,-0.65
2022-11-19T18:52:22.723Z,-0.62
2022-11-19T18:55:10.876Z,-0.63
2022-11-19T18:57:59.957Z,-0.65
2022-11-19T19:00:47.441Z,-0.67
2022-11-19T19:03:35.053Z,-0.66
2022-11-19T19:06:23.344Z,-0.62
2022-11-19T19:09:11.323Z,-0.60
2022-11-19T19:12:17.356Z,-0.59
2022-11-19T19:15:05.012Z,-0.58
2022-11-19T19:17:52.509Z,-0.57
2022-11-19T19:20:40.110Z,-0.57
2022-11-19T19:23:27.647Z,-0.56
2022-11-19T19:26:18.639Z,-0.55
2022-11-19T19:29:06.996Z,-0.51
2022-11-19T19:31:54.365Z,-0.49
2022-11-19T19:34:41.866Z,-0.48
2022-11-19T19:37:29.234Z,-0.51
2022-11-19T19:40:16.721Z,-0.48
2022-11-19T19:43:06.237Z,-0.45
2022-11-19T19:45:53.573Z,-0.45
2022-11-19T19:48:40.979Z,-0.48
2022-11-19T19:51:30.380Z,-0.51
2022-11-19T19:54:20.229Z,-0.51
2022-11-19T19:57:07.619Z,-0.52
2022-11-19T19:59:54.958Z,-0.53
2022-11-19T20:02:42.346Z,-0.53
2022-11-19T20:05:29.703Z,-0.54
2022-11-19T20:08:17.124Z,-0.55
2022-11-19T20:11:06.683Z,-0.55
2022-11-19T20:13:54.977Z,-0.55
2022-11-19T20:16:42.413Z,-0.51
2022-11-19T20:19:29.752Z,-0.50
2022-11-19T20:22:17.164Z,-0.45
2022-11-19T20:25:04.634Z,-0.44
2022-11-19T20:27:52.094Z,-0.39
2022-11-19T20:30:39.494Z,-0.37
2022-11-19T20:33:26.901Z,-0.38
2022-11-19T20:36:15.079Z,-0.38
2022-11-19T20:39:03.016Z,-0.38
2022-11-19T20:42:22.563Z,-0.36
2022-11-19T20:45:09.983Z,-0.36
2022-11-19T20:47:57.348Z,-0.35
2022-11-19T20:50:44.674Z,-0.38
2022-11-19T20:53:33.023Z,-0.35
2022-11-19T20:56:20.391Z,-0.38
2022-11-19T20:59:08.264Z,-0.35
2022-11-19T21:01:56.380Z,-0.35
2022-11-19T21:04:43.848Z,-0.35
2022-11-19T21:07:32.329Z,-0.31
2022-11-19T21:10:19.752Z,-0.28
2022-11-19T21:13:07.446Z,-0.33
2022-11-19T21:15:58.569Z,-0.34
2022-11-19T21:18:46.200Z,-0.35
2022-11-19T21:21:34.232Z,-0.31
2022-11-19T21:24:21.759Z,-0.28
2022-11-19T21:27:09.083Z,-0.23
2022-11-19T21:29:56.430Z,-0.20
2022-11-19T21:32:43.853Z,-0.19
2022-11-19T21:35:31.200Z,-0.17
2022-11-19T21:38:18.750Z,-0.23
2022-11-19T21:41:06.306Z,-0.23
2022-11-19T21:43:53.744Z,-0.18
2022-11-19T21:46:41.109Z,-0.17
2022-11-19T21:49:28.484Z,-0.17
2022-11-19T21:52:15.836Z,-0.12
2022-11-19T21:55:03.256Z,-0.12
2022-11-19T21:57:50.705Z,-0.13
2022-11-19T22:00:38.318Z,-0.09
2022-11-19T22:03:26.100Z,-0.09
2022-11-19T22:06:13.412Z,-0.10
2022-11-19T22:09:00.769Z,-0.10
2022-11-19T22:11:48.099Z,-0.11
2022-11-19T22:14:35.414Z,-0.14
2022-11-19T22:17:22.937Z,-0.11
2022-11-19T22:20:10.540Z,-0.09
2022-11-19T22:22:58.283Z,-0.08
2022-11-19T22:25:45.581Z,-0.05
2022-11-19T22:28:33.394Z,-0.03
2022-11-19T22:31:20.794Z,0.00
2022-11-19T22:34:08.216Z,0.04
2022-11-19T22:36:55.505Z,0.05
2022-11-19T22:39:43.946Z,0.07
2022-11-19T22:42:31.303Z,0.08
2022-11-19T22:45:18.636Z,0.05
2022-11-19T22:48:06.169Z,0.05
2022-11-19T22:50:53.549Z,0.04
2022-11-19T22:53:41.254Z,0.03
2022-11-19T22:56:30.348Z,0.03
2022-11-19T22:59:17.932Z,0.04
2022-11-19T23:02:05.389Z,0.09
2022-11-19T23:04:52.878Z,0.08
2022-11-19T23:07:40.233Z,0.08
2022-11-19T23:10:27.781Z,0.06
2022-11-19T23:13:31.959Z,0.06
2022-11-19T23:16:20.503Z,0.05
2022-11-19T23:19:08.670Z,0.04
2022-11-19T23:21:56.010Z,0.01
2022-11-19T23:24:43.334Z,0.00
2022-11-19T23:27:30.737Z,0.00
2022-11-19T23:30:18.114Z,0.03
2022-11-19T23:33:05.441Z,0.06
2022-11-19T23:35:52.846Z,0.09
2022-11-19T23:38:40.463Z,0.09
2022-11-19T23:41:28.341Z,0.12
2022-11-19T23:44:15.681Z,0.15
2022-11-19T23:47:04.531Z,0.15
2022-11-19T23:49:51.864Z,0.17
2022-11-19T23:52:39.191Z,0.17
2022-11-19T23:55:26.712Z,0.19
2022-11-19T23:58:14.128Z,0.18
